sensor_id;sensor_type;location;lat;lon;timestamp;P1;durP1;ratioP1;P2;durP2;ratioP2
36291;SDS011;22327;51.208;6.418;2024-01-16T00:02:23;15.73;;;11.38;;
36291;SDS011;22327;51.208;6.418;2024-01-16T00:05:23;22.58;;;12.63;;
36291;SDS011;22327;51.208;6.418;2024-01-16T00:08:24;16.25;;;11.10;;
36291;SDS011;22327;51.208;6.418;2024-01-16T00:11:24;21.33;;;11.30;;
36291;SDS011;22327;51.208;6.418;2024-01-16T00:14:25;18.17;;;12.00;;
36291;SDS011;22327;51.208;6.418;2024-01-16T00:17:25;15.30;;;8.23;;
36291;SDS011;22327;51.208;6.418;2024-01-16T00:20:26;18.65;;;11.65;;
36291;SDS011;22327;51.208;6.418;2024-01-16T00:23:26;20.30;;;12.98;;
36291;SDS011;22327;51.208;6.418;2024-01-16T00:26:27;23.65;;;13.95;;
36291;SDS011;22327;51.208;6.418;2024-01-16T00:29:28;24.15;;;15.45;;
36291;SDS011;22327;51.208;6.418;2024-01-16T00:32:28;28.67;;;17.33;;
36291;SDS011;22327;51.208;6.418;2024-01-16T00:35:28;27.65;;;16.65;;
36291;SDS011;22327;51.208;6.418;2024-01-16T00:38:29;24.50;;;15.68;;
36291;SDS011;22327;51.208;6.418;2024-01-16T00:41:33;24.23;;;14.98;;
36291;SDS011;22327;51.208;6.418;2024-01-16T00:44:33;26.75;;;15.95;;
36291;SDS011;22327;51.208;6.418;2024-01-16T00:47:34;25.35;;;14.93;;
36291;SDS011;22327;51.208;6.418;2024-01-16T00:50:35;25.13;;;16.38;;
36291;SDS011;22327;51.208;6.418;2024-01-16T00:53:42;20.02;;;13.30;;
36291;SDS011;22327;51.208;6.418;2024-01-16T00:56:43;21.33;;;13.30;;
36291;SDS011;22327;51.208;6.418;2024-01-16T00:59:44;21.25;;;13.15;;
36291;SDS011;22327;51.208;6.418;2024-01-16T01:02:44;22.60;;;13.80;;
36291;SDS011;22327;51.208;6.418;2024-01-16T01:05:45;20.02;;;13.13;;
36291;SDS011;22327;51.208;6.418;2024-01-16T01:08:45;20.10;;;12.60;;
36291;SDS011;22327;51.208;6.418;2024-01-16T01:11:46;20.48;;;12.88;;
36291;SDS011;22327;51.208;6.418;2024-01-16T01:14:46;18.55;;;12.82;;
36291;SDS011;22327;51.208;6.418;2024-01-16T01:17:48;18.50;;;13.32;;
36291;SDS011;22327;51.208;6.418;2024-01-16T01:20:49;24.80;;;12.82;;
36291;SDS011;22327;51.208;6.418;2024-01-16T01:23:50;19.98;;;11.73;;
36291;SDS011;22327;51.208;6.418;2024-01-16T01:26:50;16.05;;;11.98;;
36291;SDS011;22327;51.208;6.418;2024-01-16T01:29:51;18.23;;;11.65;;
36291;SDS011;22327;51.208;6.418;2024-01-16T01:32:51;21.20;;;13.20;;
36291;SDS011;22327;51.208;6.418;2024-01-16T01:35:52;20.55;;;13.40;;
36291;SDS011;22327;51.208;6.418;2024-01-16T01:38:52;20.70;;;13.38;;
36291;SDS011;22327;51.208;6.418;2024-01-16T01:41:54;15.30;;;10.65;;
36291;SDS011;22327;51.208;6.418;2024-01-16T01:44:54;20.00;;;12.90;;
36291;SDS011;22327;51.208;6.418;2024-01-16T01:47:55;22.35;;;15.27;;
36291;SDS011;22327;51.208;6.418;2024-01-16T01:50:56;23.73;;;15.48;;
36291;SDS011;22327;51.208;6.418;2024-01-16T01:53:56;24.92;;;15.10;;
36291;SDS011;22327;51.208;6.418;2024-01-16T01:56:58;22.35;;;14.23;;
36291;SDS011;22327;51.208;6.418;2024-01-16T02:00:00;19.08;;;13.50;;
36291;SDS011;22327;51.208;6.418;2024-01-16T02:03:03;21.75;;;14.57;;
36291;SDS011;22327;51.208;6.418;2024-01-16T02:06:03;22.45;;;13.43;;
36291;SDS011;22327;51.208;6.418;2024-01-16T02:09:04;19.70;;;13.20;;
36291;SDS011;22327;51.208;6.418;2024-01-16T02:12:06;20.77;;;12.77;;
36291;SDS011;22327;51.208;6.418;2024-01-16T02:15:07;17.85;;;12.80;;
36291;SDS011;22327;51.208;6.418;2024-01-16T02:18:08;21.55;;;12.60;;
36291;SDS011;22327;51.208;6.418;2024-01-16T02:21:08;18.75;;;12.13;;
36291;SDS011;22327;51.208;6.418;2024-01-16T02:24:10;22.75;;;11.70;;
36291;SDS011;22327;51.208;6.418;2024-01-16T02:27:11;20.88;;;13.45;;
36291;SDS011;22327;51.208;6.418;2024-01-16T02:30:13;19.77;;;13.27;;
36291;SDS011;22327;51.208;6.418;2024-01-16T02:33:13;22.13;;;12.48;;
36291;SDS011;22327;51.208;6.418;2024-01-16T02:36:14;17.90;;;12.77;;
36291;SDS011;22327;51.208;6.418;2024-01-16T02:39:14;20.85;;;12.80;;
36291;SDS011;22327;51.208;6.418;2024-01-16T02:42:15;17.73;;;10.88;;
36291;SDS011;22327;51.208;6.418;2024-01-16T02:45:15;23.45;;;12.15;;
36291;SDS011;22327;51.208;6.418;2024-01-16T02:48:16;17.90;;;9.82;;
36291;SDS011;22327;51.208;6.418;2024-01-16T02:51:16;19.95;;;12.48;;
36291;SDS011;22327;51.208;6.418;2024-01-16T02:54:17;18.02;;;12.13;;
36291;SDS011;22327;51.208;6.418;2024-01-16T02:57:17;20.48;;;12.48;;
36291;SDS011;22327;51.208;6.418;2024-01-16T03:00:18;15.30;;;10.43;;
36291;SDS011;22327;51.208;6.418;2024-01-16T03:03:18;17.40;;;11.02;;
36291;SDS011;22327;51.208;6.418;2024-01-16T03:06:23;12.82;;;8.75;;
36291;SDS011;22327;51.208;6.418;2024-01-16T03:09:24;16.17;;;9.98;;
36291;SDS011;22327;51.208;6.418;2024-01-16T03:12:24;17.00;;;10.32;;
36291;SDS011;22327;51.208;6.418;2024-01-16T03:15:25;15.35;;;9.88;;
36291;SDS011;22327;51.208;6.418;2024-01-16T03:18:25;14.73;;;9.52;;
36291;SDS011;22327;51.208;6.418;2024-01-16T03:21:26;15.13;;;9.88;;
36291;SDS011;22327;51.208;6.418;2024-01-16T03:24:27;12.27;;;8.73;;
36291;SDS011;22327;51.208;6.418;2024-01-16T03:27:28;14.30;;;8.18;;
36291;SDS011;22327;51.208;6.418;2024-01-16T03:30:28;12.43;;;8.68;;
36291;SDS011;22327;51.208;6.418;2024-01-16T03:33:29;14.23;;;8.77;;
36291;SDS011;22327;51.208;6.418;2024-01-16T03:36:29;15.65;;;8.70;;
36291;SDS011;22327;51.208;6.418;2024-01-16T03:39:30;10.30;;;6.90;;
36291;SDS011;22327;51.208;6.418;2024-01-16T03:42:30;12.88;;;7.68;;
36291;SDS011;22327;51.208;6.418;2024-01-16T03:45:31;13.60;;;7.45;;
36291;SDS011;22327;51.208;6.418;2024-01-16T03:48:31;12.40;;;7.57;;
36291;SDS011;22327;51.208;6.418;2024-01-16T03:51:32;13.13;;;7.28;;
36291;SDS011;22327;51.208;6.418;2024-01-16T03:54:33;12.55;;;7.45;;
36291;SDS011;22327;51.208;6.418;2024-01-16T03:57:33;11.82;;;7.35;;
36291;SDS011;22327;51.208;6.418;2024-01-16T04:00:34;10.82;;;7.05;;
36291;SDS011;22327;51.208;6.418;2024-01-16T04:03:34;13.70;;;7.97;;
36291;SDS011;22327;51.208;6.418;2024-01-16T04:06:35;12.77;;;7.80;;
36291;SDS011;22327;51.208;6.418;2024-01-16T04:09:36;15.00;;;8.38;;
36291;SDS011;22327;51.208;6.418;2024-01-16T04:12:36;15.25;;;9.48;;
36291;SDS011;22327;51.208;6.418;2024-01-16T04:15:38;15.60;;;8.45;;
36291;SDS011;22327;51.208;6.418;2024-01-16T04:18:40;20.05;;;10.57;;
36291;SDS011;22327;51.208;6.418;2024-01-16T04:21:42;16.08;;;9.57;;
36291;SDS011;22327;51.208;6.418;2024-01-16T04:24:42;21.33;;;11.05;;
36291;SDS011;22327;51.208;6.418;2024-01-16T04:27:44;18.80;;;10.48;;
36291;SDS011;22327;51.208;6.418;2024-01-16T04:30:44;15.85;;;9.93;;
36291;SDS011;22327;51.208;6.418;2024-01-16T04:33:45;19.73;;;10.23;;
36291;SDS011;22327;51.208;6.418;2024-01-16T04:36:45;21.63;;;11.45;;
36291;SDS011;22327;51.208;6.418;2024-01-16T04:39:46;21.40;;;12.10;;
36291;SDS011;22327;51.208;6.418;2024-01-16T04:42:47;17.60;;;10.65;;
36291;SDS011;22327;51.208;6.418;2024-01-16T04:45:47;18.92;;;11.20;;
36291;SDS011;22327;51.208;6.418;2024-01-16T04:48:48;22.20;;;11.18;;
36291;SDS011;22327;51.208;6.418;2024-01-16T04:51:50;22.40;;;11.15;;
36291;SDS011;22327;51.208;6.418;2024-01-16T04:54:50;20.90;;;10.95;;
36291;SDS011;22327;51.208;6.418;2024-01-16T04:57:51;22.20;;;10.60;;
36291;SDS011;22327;51.208;6.418;2024-01-16T05:00:52;21.23;;;9.73;;
36291;SDS011;22327;51.208;6.418;2024-01-16T05:03:52;24.27;;;9.35;;
36291;SDS011;22327;51.208;6.418;2024-01-16T05:06:53;15.23;;;9.70;;
36291;SDS011;22327;51.208;6.418;2024-01-16T05:09:53;16.63;;;9.23;;
36291;SDS011;22327;51.208;6.418;2024-01-16T05:12:55;23.70;;;9.48;;
36291;SDS011;22327;51.208;6.418;2024-01-16T05:15:55;15.85;;;8.73;;
36291;SDS011;22327;51.208;6.418;2024-01-16T05:18:56;15.30;;;8.55;;
36291;SDS011;22327;51.208;6.418;2024-01-16T05:21:56;20.35;;;9.23;;
36291;SDS011;22327;51.208;6.418;2024-01-16T05:24:57;20.27;;;8.27;;
36291;SDS011;22327;51.208;6.418;2024-01-16T05:27:59;17.17;;;7.57;;
36291;SDS011;22327;51.208;6.418;2024-01-16T05:31:00;17.10;;;7.35;;
36291;SDS011;22327;51.208;6.418;2024-01-16T05:34:01;24.00;;;7.53;;
36291;SDS011;22327;51.208;6.418;2024-01-16T05:37:01;11.20;;;6.30;;
36291;SDS011;22327;51.208;6.418;2024-01-16T05:40:03;16.55;;;6.78;;
36291;SDS011;22327;51.208;6.418;2024-01-16T05:43:03;20.92;;;6.60;;
36291;SDS011;22327;51.208;6.418;2024-01-16T05:46:04;13.93;;;5.90;;
36291;SDS011;22327;51.208;6.418;2024-01-16T05:49:05;16.17;;;5.85;;
36291;SDS011;22327;51.208;6.418;2024-01-16T05:52:05;16.88;;;6.20;;
36291;SDS011;22327;51.208;6.418;2024-01-16T05:55:07;13.77;;;5.82;;
36291;SDS011;22327;51.208;6.418;2024-01-16T05:58:07;13.60;;;6.10;;
36291;SDS011;22327;51.208;6.418;2024-01-16T06:01:08;17.05;;;5.85;;
36291;SDS011;22327;51.208;6.418;2024-01-16T06:04:08;16.30;;;6.38;;
36291;SDS011;22327;51.208;6.418;2024-01-16T06:07:09;14.30;;;6.47;;
36291;SDS011;22327;51.208;6.418;2024-01-16T06:10:11;13.98;;;5.90;;
36291;SDS011;22327;51.208;6.418;2024-01-16T06:16:14;15.68;;;5.90;;
36291;SDS011;22327;51.208;6.418;2024-01-16T06:19:14;13.82;;;6.32;;
36291;SDS011;22327;51.208;6.418;2024-01-16T06:22:16;15.68;;;6.82;;
36291;SDS011;22327;51.208;6.418;2024-01-16T06:25:16;16.65;;;6.15;;
36291;SDS011;22327;51.208;6.418;2024-01-16T06:28:17;9.90;;;5.38;;
36291;SDS011;22327;51.208;6.418;2024-01-16T06:31:18;13.00;;;5.80;;
36291;SDS011;22327;51.208;6.418;2024-01-16T06:34:18;15.38;;;5.70;;
36291;SDS011;22327;51.208;6.418;2024-01-16T06:37:19;12.82;;;5.63;;
36291;SDS011;22327;51.208;6.418;2024-01-16T06:40:20;12.68;;;5.05;;
36291;SDS011;22327;51.208;6.418;2024-01-16T06:43:21;18.25;;;5.25;;
36291;SDS011;22327;51.208;6.418;2024-01-16T06:46:21;14.48;;;5.40;;
36291;SDS011;22327;51.208;6.418;2024-01-16T06:49:22;15.25;;;4.88;;
36291;SDS011;22327;51.208;6.418;2024-01-16T06:52:22;16.45;;;5.22;;
36291;SDS011;22327;51.208;6.418;2024-01-16T06:55:23;10.88;;;4.97;;
36291;SDS011;22327;51.208;6.418;2024-01-16T06:58:23;15.00;;;4.63;;
36291;SDS011;22327;51.208;6.418;2024-01-16T07:01:24;10.15;;;4.20;;
36291;SDS011;22327;51.208;6.418;2024-01-16T07:04:26;8.77;;;4.38;;
36291;SDS011;22327;51.208;6.418;2024-01-16T07:07:27;11.48;;;4.05;;
36291;SDS011;22327;51.208;6.418;2024-01-16T07:10:27;10.88;;;4.05;;
36291;SDS011;22327;51.208;6.418;2024-01-16T07:13:28;11.95;;;4.10;;
36291;SDS011;22327;51.208;6.418;2024-01-16T07:16:28;8.38;;;3.80;;
36291;SDS011;22327;51.208;6.418;2024-01-16T07:19:29;8.52;;;3.63;;
36291;SDS011;22327;51.208;6.418;2024-01-16T07:22:29;18.02;;;4.38;;
36291;SDS011;22327;51.208;6.418;2024-01-16T07:25:30;10.13;;;3.55;;
36291;SDS011;22327;51.208;6.418;2024-01-16T07:28:30;13.80;;;4.00;;
36291;SDS011;22327;51.208;6.418;2024-01-16T07:31:31;16.23;;;4.03;;
36291;SDS011;22327;51.208;6.418;2024-01-16T07:34:31;10.02;;;4.03;;
36291;SDS011;22327;51.208;6.418;2024-01-16T07:37:32;13.65;;;3.88;;
36291;SDS011;22327;51.208;6.418;2024-01-16T07:40:32;12.57;;;3.85;;
36291;SDS011;22327;51.208;6.418;2024-01-16T07:43:33;9.60;;;3.80;;
36291;SDS011;22327;51.208;6.418;2024-01-16T07:46:35;9.63;;;3.55;;
36291;SDS011;22327;51.208;6.418;2024-01-16T07:49:35;8.27;;;3.08;;
36291;SDS011;22327;51.208;6.418;2024-01-16T07:52:36;13.98;;;4.00;;
36291;SDS011;22327;51.208;6.418;2024-01-16T07:55:36;10.95;;;4.43;;
36291;SDS011;22327;51.208;6.418;2024-01-16T07:58:37;12.82;;;4.25;;
36291;SDS011;22327;51.208;6.418;2024-01-16T08:01:37;12.75;;;4.10;;
36291;SDS011;22327;51.208;6.418;2024-01-16T08:04:38;12.57;;;4.50;;
36291;SDS011;22327;51.208;6.418;2024-01-16T08:07:38;9.10;;;4.05;;
36291;SDS011;22327;51.208;6.418;2024-01-16T08:10:42;10.25;;;3.92;;
36291;SDS011;22327;51.208;6.418;2024-01-16T08:13:42;9.10;;;3.75;;
36291;SDS011;22327;51.208;6.418;2024-01-16T08:16:44;9.73;;;3.95;;
36291;SDS011;22327;51.208;6.418;2024-01-16T08:19:44;8.52;;;3.10;;
36291;SDS011;22327;51.208;6.418;2024-01-16T08:22:45;8.10;;;3.65;;
36291;SDS011;22327;51.208;6.418;2024-01-16T08:25:45;10.38;;;4.00;;
36291;SDS011;22327;51.208;6.418;2024-01-16T08:28:45;7.78;;;4.45;;
36291;SDS011;22327;51.208;6.418;2024-01-16T08:31:46;7.50;;;3.35;;
36291;SDS011;22327;51.208;6.418;2024-01-16T08:34:47;13.18;;;3.70;;
36291;SDS011;22327;51.208;6.418;2024-01-16T08:37:47;11.02;;;3.60;;
36291;SDS011;22327;51.208;6.418;2024-01-16T08:40:49;10.55;;;4.15;;
36291;SDS011;22327;51.208;6.418;2024-01-16T08:43:49;13.05;;;4.25;;
36291;SDS011;22327;51.208;6.418;2024-01-16T08:46:51;7.20;;;3.58;;
36291;SDS011;22327;51.208;6.418;2024-01-16T08:49:54;8.00;;;3.28;;
36291;SDS011;22327;51.208;6.418;2024-01-16T08:52:54;10.20;;;3.70;;
36291;SDS011;22327;51.208;6.418;2024-01-16T08:55:55;10.50;;;4.03;;
36291;SDS011;22327;51.208;6.418;2024-01-16T08:58:55;9.52;;;4.05;;
36291;SDS011;22327;51.208;6.418;2024-01-16T09:01:56;7.78;;;3.80;;
36291;SDS011;22327;51.208;6.418;2024-01-16T09:04:57;8.50;;;4.00;;
36291;SDS011;22327;51.208;6.418;2024-01-16T09:07:58;8.30;;;3.67;;
36291;SDS011;22327;51.208;6.418;2024-01-16T09:10:59;9.15;;;3.60;;
36291;SDS011;22327;51.208;6.418;2024-01-16T09:14:00;9.38;;;4.65;;
36291;SDS011;22327;51.208;6.418;2024-01-16T09:17:00;9.60;;;3.75;;
36291;SDS011;22327;51.208;6.418;2024-01-16T09:20:01;8.50;;;3.55;;
36291;SDS011;22327;51.208;6.418;2024-01-16T09:23:02;8.65;;;3.97;;
36291;SDS011;22327;51.208;6.418;2024-01-16T09:26:02;7.35;;;3.60;;
36291;SDS011;22327;51.208;6.418;2024-01-16T09:29:03;9.10;;;4.68;;
36291;SDS011;22327;51.208;6.418;2024-01-16T09:32:04;13.13;;;3.85;;
36291;SDS011;22327;51.208;6.418;2024-01-16T09:35:04;7.03;;;3.42;;
36291;SDS011;22327;51.208;6.418;2024-01-16T09:38:07;9.05;;;4.47;;
36291;SDS011;22327;51.208;6.418;2024-01-16T09:41:08;7.82;;;3.40;;
36291;SDS011;22327;51.208;6.418;2024-01-16T09:44:09;8.65;;;3.50;;
36291;SDS011;22327;51.208;6.418;2024-01-16T09:47:10;18.38;;;4.82;;
36291;SDS011;22327;51.208;6.418;2024-01-16T09:50:11;11.60;;;4.10;;
36291;SDS011;22327;51.208;6.418;2024-01-16T09:53:13;6.50;;;3.40;;
36291;SDS011;22327;51.208;6.418;2024-01-16T09:56:14;8.57;;;3.65;;
36291;SDS011;22327;51.208;6.418;2024-01-16T09:59:16;6.95;;;3.85;;
36291;SDS011;22327;51.208;6.418;2024-01-16T10:02:20;9.27;;;3.80;;
36291;SDS011;22327;51.208;6.418;2024-01-16T10:05:22;8.85;;;4.28;;
36291;SDS011;22327;51.208;6.418;2024-01-16T10:08:23;8.75;;;3.65;;
36291;SDS011;22327;51.208;6.418;2024-01-16T10:11:24;7.88;;;3.10;;
36291;SDS011;22327;51.208;6.418;2024-01-16T10:14:24;8.40;;;3.85;;
36291;SDS011;22327;51.208;6.418;2024-01-16T10:17:38;8.65;;;3.70;;
36291;SDS011;22327;51.208;6.418;2024-01-16T10:20:39;10.38;;;4.53;;
36291;SDS011;22327;51.208;6.418;2024-01-16T10:23:40;9.15;;;3.83;;
36291;SDS011;22327;51.208;6.418;2024-01-16T10:26:41;10.75;;;4.32;;
36291;SDS011;22327;51.208;6.418;2024-01-16T10:29:54;9.73;;;3.95;;
36291;SDS011;22327;51.208;6.418;2024-01-16T10:33:11;11.65;;;4.03;;
36291;SDS011;22327;51.208;6.418;2024-01-16T10:36:16;14.80;;;4.30;;
36291;SDS011;22327;51.208;6.418;2024-01-16T10:39:19;7.90;;;3.20;;
36291;SDS011;22327;51.208;6.418;2024-01-16T10:42:20;7.20;;;3.80;;
36291;SDS011;22327;51.208;6.418;2024-01-16T10:45:21;8.73;;;3.88;;
36291;SDS011;22327;51.208;6.418;2024-01-16T10:48:22;6.85;;;4.47;;
36291;SDS011;22327;51.208;6.418;2024-01-16T10:51:22;10.90;;;3.90;;
36291;SDS011;22327;51.208;6.418;2024-01-16T10:54:24;7.03;;;4.10;;
36291;SDS011;22327;51.208;6.418;2024-01-16T10:57:25;10.75;;;3.80;;
36291;SDS011;22327;51.208;6.418;2024-01-16T11:00:26;8.32;;;3.40;;
36291;SDS011;22327;51.208;6.418;2024-01-16T11:03:29;7.00;;;3.67;;
36291;SDS011;22327;51.208;6.418;2024-01-16T11:06:36;14.93;;;4.18;;
36291;SDS011;22327;51.208;6.418;2024-01-16T11:09:37;10.18;;;4.55;;
36291;SDS011;22327;51.208;6.418;2024-01-16T11:12:39;10.68;;;4.20;;
36291;SDS011;22327;51.208;6.418;2024-01-16T11:15:41;10.90;;;3.42;;
36291;SDS011;22327;51.208;6.418;2024-01-16T11:18:42;7.97;;;3.78;;
36291;SDS011;22327;51.208;6.418;2024-01-16T11:21:43;9.77;;;4.13;;
36291;SDS011;22327;51.208;6.418;2024-01-16T11:24:45;8.73;;;3.75;;
36291;SDS011;22327;51.208;6.418;2024-01-16T11:27:46;9.40;;;4.18;;
36291;SDS011;22327;51.208;6.418;2024-01-16T11:30:51;8.63;;;4.22;;
36291;SDS011;22327;51.208;6.418;2024-01-16T11:33:51;9.90;;;4.10;;
36291;SDS011;22327;51.208;6.418;2024-01-16T11:36:52;8.07;;;3.70;;
36291;SDS011;22327;51.208;6.418;2024-01-16T11:50:08;10.82;;;5.07;;
36291;SDS011;22327;51.208;6.418;2024-01-16T11:53:10;8.75;;;3.60;;
36291;SDS011;22327;51.208;6.418;2024-01-16T11:56:39;7.85;;;4.10;;
36291;SDS011;22327;51.208;6.418;2024-01-16T12:00:01;7.45;;;3.88;;
36291;SDS011;22327;51.208;6.418;2024-01-16T12:03:13;12.45;;;3.33;;
36291;SDS011;22327;51.208;6.418;2024-01-16T12:06:16;6.13;;;2.72;;
36291;SDS011;22327;51.208;6.418;2024-01-16T12:09:17;6.82;;;3.50;;
36291;SDS011;22327;51.208;6.418;2024-01-16T12:12:17;5.65;;;2.88;;
36291;SDS011;22327;51.208;6.418;2024-01-16T12:15:21;7.38;;;3.50;;
36291;SDS011;22327;51.208;6.418;2024-01-16T12:18:22;7.28;;;3.67;;
36291;SDS011;22327;51.208;6.418;2024-01-16T12:21:22;8.55;;;4.22;;
36291;SDS011;22327;51.208;6.418;2024-01-16T12:24:23;8.73;;;3.33;;
36291;SDS011;22327;51.208;6.418;2024-01-16T12:27:23;7.38;;;2.90;;
36291;SDS011;22327;51.208;6.418;2024-01-16T12:30:25;7.70;;;3.28;;
36291;SDS011;22327;51.208;6.418;2024-01-16T12:33:28;11.18;;;3.42;;
36291;SDS011;22327;51.208;6.418;2024-01-16T12:36:28;7.68;;;3.35;;
36291;SDS011;22327;51.208;6.418;2024-01-16T12:39:29;5.85;;;3.45;;
36291;SDS011;22327;51.208;6.418;2024-01-16T12:42:29;6.78;;;3.78;;
36291;SDS011;22327;51.208;6.418;2024-01-16T12:45:30;8.05;;;3.67;;
36291;SDS011;22327;51.208;6.418;2024-01-16T12:48:31;6.07;;;2.80;;
36291;SDS011;22327;51.208;6.418;2024-01-16T12:51:32;8.88;;;3.70;;
36291;SDS011;22327;51.208;6.418;2024-01-16T12:54:32;7.70;;;3.60;;
36291;SDS011;22327;51.208;6.418;2024-01-16T12:57:33;8.13;;;3.53;;
36291;SDS011;22327;51.208;6.418;2024-01-16T13:00:34;8.70;;;3.60;;
36291;SDS011;22327;51.208;6.418;2024-01-16T13:03:34;10.57;;;4.28;;
36291;SDS011;22327;51.208;6.418;2024-01-16T13:06:35;9.13;;;4.00;;
36291;SDS011;22327;51.208;6.418;2024-01-16T13:09:37;8.55;;;4.40;;
36291;SDS011;22327;51.208;6.418;2024-01-16T13:12:37;7.45;;;3.95;;
36291;SDS011;22327;51.208;6.418;2024-01-16T13:15:38;9.80;;;4.35;;
36291;SDS011;22327;51.208;6.418;2024-01-16T13:18:38;6.90;;;3.58;;
36291;SDS011;22327;51.208;6.418;2024-01-16T13:21:39;11.48;;;4.25;;
36291;SDS011;22327;51.208;6.418;2024-01-16T13:24:39;5.45;;;3.22;;
36291;SDS011;22327;51.208;6.418;2024-01-16T13:27:40;9.38;;;3.83;;
36291;SDS011;22327;51.208;6.418;2024-01-16T13:30:41;10.00;;;3.75;;
36291;SDS011;22327;51.208;6.418;2024-01-16T13:33:42;8.57;;;4.30;;
36291;SDS011;22327;51.208;6.418;2024-01-16T13:36:43;6.25;;;3.60;;
36291;SDS011;22327;51.208;6.418;2024-01-16T13:39:43;7.43;;;3.50;;
36291;SDS011;22327;51.208;6.418;2024-01-16T13:42:44;6.80;;;3.33;;
36291;SDS011;22327;51.208;6.418;2024-01-16T13:45:48;6.35;;;3.47;;
36291;SDS011;22327;51.208;6.418;2024-01-16T13:48:49;6.30;;;3.47;;
36291;SDS011;22327;51.208;6.418;2024-01-16T13:51:50;6.97;;;3.75;;
36291;SDS011;22327;51.208;6.418;2024-01-16T13:54:51;5.90;;;3.80;;
36291;SDS011;22327;51.208;6.418;2024-01-16T13:57:51;7.30;;;3.42;;
36291;SDS011;22327;51.208;6.418;2024-01-16T14:00:52;7.32;;;3.08;;
36291;SDS011;22327;51.208;6.418;2024-01-16T14:03:53;6.88;;;3.45;;
36291;SDS011;22327;51.208;6.418;2024-01-16T14:06:54;9.50;;;3.85;;
36291;SDS011;22327;51.208;6.418;2024-01-16T14:09:55;7.60;;;3.10;;
36291;SDS011;22327;51.208;6.418;2024-01-16T14:12:55;7.20;;;3.65;;
36291;SDS011;22327;51.208;6.418;2024-01-16T14:15:56;5.30;;;3.80;;
36291;SDS011;22327;51.208;6.418;2024-01-16T14:18:57;9.63;;;4.07;;
36291;SDS011;22327;51.208;6.418;2024-01-16T14:21:58;9.88;;;3.75;;
36291;SDS011;22327;51.208;6.418;2024-01-16T14:24:58;10.00;;;3.88;;
36291;SDS011;22327;51.208;6.418;2024-01-16T14:28:00;9.75;;;4.13;;
36291;SDS011;22327;51.208;6.418;2024-01-16T14:31:05;8.50;;;3.63;;
36291;SDS011;22327;51.208;6.418;2024-01-16T14:34:05;8.48;;;3.63;;
36291;SDS011;22327;51.208;6.418;2024-01-16T14:37:06;6.80;;;3.45;;
36291;SDS011;22327;51.208;6.418;2024-01-16T14:40:07;8.70;;;3.53;;
36291;SDS011;22327;51.208;6.418;2024-01-16T14:43:20;7.38;;;3.40;;
36291;SDS011;22327;51.208;6.418;2024-01-16T14:46:21;6.55;;;3.30;;
36291;SDS011;22327;51.208;6.418;2024-01-16T14:49:21;7.68;;;3.58;;
36291;SDS011;22327;51.208;6.418;2024-01-16T14:52:22;7.55;;;4.03;;
36291;SDS011;22327;51.208;6.418;2024-01-16T14:55:24;8.85;;;4.03;;
36291;SDS011;22327;51.208;6.418;2024-01-16T14:58:26;7.15;;;3.90;;
36291;SDS011;22327;51.208;6.418;2024-01-16T15:01:27;8.15;;;4.20;;
36291;SDS011;22327;51.208;6.418;2024-01-16T15:04:28;7.50;;;3.72;;
36291;SDS011;22327;51.208;6.418;2024-01-16T15:07:31;5.88;;;3.40;;
36291;SDS011;22327;51.208;6.418;2024-01-16T15:10:31;5.90;;;3.65;;
36291;SDS011;22327;51.208;6.418;2024-01-16T15:13:32;8.18;;;3.58;;
36291;SDS011;22327;51.208;6.418;2024-01-16T15:16:32;7.22;;;3.78;;
36291;SDS011;22327;51.208;6.418;2024-01-16T15:19:33;6.40;;;4.20;;
36291;SDS011;22327;51.208;6.418;2024-01-16T15:22:36;7.72;;;3.95;;
36291;SDS011;22327;51.208;6.418;2024-01-16T15:25:40;7.63;;;4.07;;
36291;SDS011;22327;51.208;6.418;2024-01-16T15:28:41;6.03;;;4.50;;
36291;SDS011;22327;51.208;6.418;2024-01-16T15:31:41;6.13;;;3.80;;
36291;SDS011;22327;51.208;6.418;2024-01-16T15:34:42;6.88;;;4.35;;
36291;SDS011;22327;51.208;6.418;2024-01-16T15:37:42;8.82;;;4.05;;
36291;SDS011;22327;51.208;6.418;2024-01-16T15:40:44;6.70;;;3.97;;
36291;SDS011;22327;51.208;6.418;2024-01-16T15:43:44;10.25;;;5.05;;
36291;SDS011;22327;51.208;6.418;2024-01-16T15:49:59;8.15;;;4.50;;
36291;SDS011;22327;51.208;6.418;2024-01-16T15:52:59;9.25;;;4.75;;
36291;SDS011;22327;51.208;6.418;2024-01-16T15:56:00;7.75;;;4.15;;
36291;SDS011;22327;51.208;6.418;2024-01-16T15:59:01;9.55;;;4.35;;
36291;SDS011;22327;51.208;6.418;2024-01-16T16:02:02;7.93;;;4.82;;
36291;SDS011;22327;51.208;6.418;2024-01-16T16:05:03;12.07;;;4.90;;
36291;SDS011;22327;51.208;6.418;2024-01-16T16:08:04;7.00;;;4.45;;
36291;SDS011;22327;51.208;6.418;2024-01-16T16:11:05;7.25;;;4.28;;
36291;SDS011;22327;51.208;6.418;2024-01-16T16:14:05;8.23;;;4.70;;
36291;SDS011;22327;51.208;6.418;2024-01-16T16:17:06;7.00;;;4.38;;
36291;SDS011;22327;51.208;6.418;2024-01-16T16:20:08;9.20;;;4.72;;
36291;SDS011;22327;51.208;6.418;2024-01-16T16:23:09;8.63;;;4.63;;
36291;SDS011;22327;51.208;6.418;2024-01-16T16:26:10;9.75;;;4.88;;
36291;SDS011;22327;51.208;6.418;2024-01-16T16:29:11;6.72;;;4.85;;
36291;SDS011;22327;51.208;6.418;2024-01-16T16:32:13;7.20;;;3.97;;
36291;SDS011;22327;51.208;6.418;2024-01-16T16:35:13;8.13;;;4.70;;
36291;SDS011;22327;51.208;6.418;2024-01-16T16:38:14;9.98;;;4.68;;
36291;SDS011;22327;51.208;6.418;2024-01-16T16:41:14;8.57;;;5.13;;
36291;SDS011;22327;51.208;6.418;2024-01-16T16:44:15;10.02;;;5.82;;
36291;SDS011;22327;51.208;6.418;2024-01-16T16:47:16;10.80;;;5.15;;
36291;SDS011;22327;51.208;6.418;2024-01-16T16:50:17;10.32;;;5.57;;
36291;SDS011;22327;51.208;6.418;2024-01-16T16:53:17;10.82;;;5.60;;
36291;SDS011;22327;51.208;6.418;2024-01-16T16:56:18;10.18;;;5.50;;
36291;SDS011;22327;51.208;6.418;2024-01-16T16:59:19;12.15;;;6.78;;
36291;SDS011;22327;51.208;6.418;2024-01-16T17:02:20;11.80;;;6.63;;
36291;SDS011;22327;51.208;6.418;2024-01-16T17:05:22;12.98;;;6.80;;
36291;SDS011;22327;51.208;6.418;2024-01-16T17:08:22;15.13;;;7.63;;
36291;SDS011;22327;51.208;6.418;2024-01-16T17:11:23;15.95;;;7.15;;
36291;SDS011;22327;51.208;6.418;2024-01-16T17:14:24;14.48;;;7.43;;
36291;SDS011;22327;51.208;6.418;2024-01-16T17:17:24;16.02;;;10.45;;
36291;SDS011;22327;51.208;6.418;2024-01-16T17:20:26;15.50;;;10.55;;
36291;SDS011;22327;51.208;6.418;2024-01-16T17:23:29;25.73;;;15.85;;
36291;SDS011;22327;51.208;6.418;2024-01-16T17:26:29;20.02;;;12.40;;
36291;SDS011;22327;51.208;6.418;2024-01-16T17:29:30;18.67;;;11.52;;
36291;SDS011;22327;51.208;6.418;2024-01-16T17:32:30;16.80;;;9.18;;
36291;SDS011;22327;51.208;6.418;2024-01-16T17:35:31;12.90;;;8.80;;
36291;SDS011;22327;51.208;6.418;2024-01-16T17:38:33;12.68;;;7.32;;
36291;SDS011;22327;51.208;6.418;2024-01-16T17:41:35;14.05;;;7.70;;
36291;SDS011;22327;51.208;6.418;2024-01-16T17:44:46;13.82;;;8.10;;
36291;SDS011;22327;51.208;6.418;2024-01-16T17:47:47;11.88;;;7.05;;
36291;SDS011;22327;51.208;6.418;2024-01-16T17:50:47;15.07;;;7.43;;
36291;SDS011;22327;51.208;6.418;2024-01-16T17:53:48;12.50;;;7.07;;
36291;SDS011;22327;51.208;6.418;2024-01-16T17:56:49;13.10;;;6.93;;
36291;SDS011;22327;51.208;6.418;2024-01-16T17:59:50;14.55;;;7.05;;
36291;SDS011;22327;51.208;6.418;2024-01-16T18:02:50;12.68;;;8.18;;
36291;SDS011;22327;51.208;6.418;2024-01-16T18:05:51;14.65;;;7.97;;
36291;SDS011;22327;51.208;6.418;2024-01-16T18:08:51;15.85;;;8.82;;
36291;SDS011;22327;51.208;6.418;2024-01-16T18:11:55;12.30;;;8.93;;
36291;SDS011;22327;51.208;6.418;2024-01-16T18:14:57;12.23;;;8.57;;